createdAt,value
2018-04-16T00:00:19.828Z,88.10
2018-04-16T00:02:52.462Z,88.30
2018-04-16T00:05:25.847Z,88.40
2018-04-16T00:07:58.316Z,88.20
2018-04-16T00:10:30.947Z,88.40
2018-04-16T00:13:04.442Z,88.50
2018-04-16T00:15:37.042Z,88.50
2018-04-16T00:18:10.718Z,88.30
2018-04-16T00:20:43.508Z,88.20
2018-04-16T00:23:15.892Z,88.30
2018-04-16T00:25:49.171Z,88.30
2018-04-16T00:28:21.891Z,88.30
2018-04-16T00:30:54.434Z,88.60
2018-04-16T00:33:32.880Z,88.60
2018-04-16T00:36:23.682Z,88.80
2018-04-16T00:39:02.081Z,88.90
2018-04-16T00:41:52.305Z,88.90
2018-04-16T00:44:30.833Z,88.60
2018-04-16T00:47:09.234Z,88.30
2018-04-16T00:49:48.458Z,88.50
2018-04-16T00:52:26.885Z,88.40
2018-04-16T00:55:06.081Z,88.60
2018-04-16T00:57:44.577Z,88.60
2018-04-16T01:00:23.014Z,88.50
2018-04-16T01:03:01.818Z,88.50
2018-04-16T01:05:51.738Z,88.60
2018-04-16T01:08:30.740Z,88.60
2018-04-16T01:11:09.861Z,89.00
2018-04-16T01:13:49.815Z,89.70
2018-04-16T01:16:28.259Z,89.20
2018-04-16T01:19:06.724Z,89.10
2018-04-16T01:21:45.620Z,89.20
2018-04-16T01:24:35.955Z,89.10
2018-04-16T01:27:14.255Z,89.20
2018-04-16T01:29:53.631Z,89.30
2018-04-16T01:32:43.792Z,89.30
2018-04-16T01:35:23.186Z,89.40
2018-04-16T01:38:01.536Z,89.40
2018-04-16T01:40:48.772Z,89.40
2018-04-16T01:43:27.239Z,89.50
2018-04-16T01:46:05.723Z,89.90
2018-04-16T01:48:44.306Z,89.90
2018-04-16T01:51:22.651Z,89.80
2018-04-16T01:54:01.975Z,90.00
2018-04-16T01:56:40.510Z,90.00
2018-04-16T01:59:19.177Z,89.90
2018-04-16T02:01:57.641Z,90.00
2018-04-16T02:04:36.015Z,89.90
2018-04-16T02:07:14.516Z,90.00
2018-04-16T02:09:53.006Z,90.00
2018-04-16T02:12:31.496Z,90.00
2018-04-16T02:15:10.493Z,89.90
2018-04-16T02:17:49.787Z,89.80
2018-04-16T02:20:29.094Z,89.90
2018-04-16T02:23:07.486Z,89.90
2018-04-16T02:25:45.919Z,89.80
2018-04-16T02:28:24.313Z,89.70
2018-04-16T02:31:02.765Z,89.70
2018-04-16T02:33:41.294Z,89.80
2018-04-16T02:36:19.962Z,89.70
2018-04-16T02:38:58.386Z,89.60
2018-04-16T02:41:36.862Z,89.50
2018-04-16T02:44:15.244Z,89.40
2018-04-16T02:46:54.001Z,89.50
2018-04-16T02:49:32.484Z,89.30
2018-04-16T02:52:11.036Z,89.10
2018-04-16T02:54:49.409Z,89.10
2018-04-16T02:57:27.807Z,89.20
2018-04-16T03:00:06.907Z,89.40
2018-04-16T03:02:45.464Z,89.40
2018-04-16T03:05:23.969Z,89.50
2018-04-16T03:08:03.141Z,90.00
2018-04-16T03:10:41.620Z,89.80
2018-04-16T03:13:20.086Z,90.00
2018-04-16T03:15:58.485Z,90.00
2018-04-16T03:18:37.061Z,90.10
2018-04-16T03:21:15.545Z,90.10
2018-04-16T03:23:53.966Z,90.10
2018-04-16T03:26:41.409Z,90.00
2018-04-16T03:29:19.798Z,90.00
2018-04-16T03:31:58.523Z,90.00
2018-04-16T03:34:36.904Z,90.00
2018-04-16T03:37:29.835Z,90.00
2018-04-16T03:40:08.349Z,90.00
2018-04-16T03:42:46.924Z,90.00
2018-04-16T03:45:25.340Z,90.00
2018-04-16T03:48:04.324Z,90.00
2018-04-16T03:50:42.722Z,90.00
2018-04-16T03:53:17.923Z,90.00
2018-04-16T03:56:07.096Z,89.80
2018-04-16T03:58:39.598Z,89.90
2018-04-16T04:01:12.061Z,89.90
2018-04-16T04:03:44.721Z,90.00
2018-04-16T04:06:17.121Z,89.60
2018-04-16T04:08:49.542Z,89.80
2018-04-16T04:11:22.163Z,89.90
2018-04-16T04:13:54.663Z,90.00
2018-04-16T04:16:27.306Z,90.00
2018-04-16T04:18:59.792Z,90.00
2018-04-16T04:21:32.466Z,90.00
2018-04-16T04:24:17.307Z,90.00
2018-04-16T04:27:02.909Z,90.00
2018-04-16T04:29:47.831Z,90.00
2018-04-16T04:32:21.090Z,89.90
2018-04-16T04:34:53.467Z,89.80
2018-04-16T04:37:25.825Z,90.00
2018-04-16T04:39:59.834Z,89.90
2018-04-16T04:42:32.284Z,89.80
2018-04-16T04:45:04.703Z,89.80
2018-04-16T04:47:37.282Z,89.60
2018-04-16T04:50:09.632Z,89.80
2018-04-16T04:52:42.847Z,89.90
2018-04-16T04:55:16.046Z,89.90
2018-04-16T04:57:48.624Z,89.90
2018-04-16T05:00:21.172Z,90.00
2018-04-16T05:02:54.268Z,89.80
2018-04-16T05:05:26.853Z,89.70
2018-04-16T05:08:00.098Z,89.30
2018-04-16T05:10:32.621Z,89.30
2018-04-16T05:13:05.779Z,89.50
2018-04-16T05:15:38.422Z,89.50
2018-04-16T05:18:11.689Z,89.50
2018-04-16T05:20:44.108Z,89.50
2018-04-16T05:23:16.822Z,89.60
2018-04-16T05:25:49.349Z,89.60
2018-04-16T05:28:22.617Z,89.60
2018-04-16T05:30:55.107Z,89.60
2018-04-16T05:33:27.532Z,89.70
2018-04-16T05:36:00.063Z,89.60
2018-04-16T05:38:33.312Z,89.90
2018-04-16T05:41:06.711Z,89.70
2018-04-16T05:43:39.960Z,90.10
2018-04-16T05:46:12.577Z,89.80
2018-04-16T05:48:44.986Z,89.80
2018-04-16T05:51:17.644Z,89.70
2018-04-16T05:53:50.346Z,89.50
2018-04-16T05:56:22.842Z,89.50
2018-04-16T05:58:55.552Z,89.30
2018-04-16T06:01:28.893Z,89.40
2018-04-16T06:04:01.410Z,89.40
2018-04-16T06:06:34.289Z,89.50
2018-04-16T06:09:06.597Z,89.40
2018-04-16T06:11:39.368Z,89.20
2018-04-16T06:14:13.142Z,89.60
2018-04-16T06:16:46.504Z,89.40
2018-04-16T06:19:19.002Z,89.50
2018-04-16T06:21:51.561Z,89.70
2018-04-16T06:24:24.299Z,89.60
2018-04-16T06:26:56.977Z,89.70
2018-04-16T06:29:29.484Z,89.60
2018-04-16T06:32:01.963Z,89.50
2018-04-16T06:34:35.367Z,89.30
2018-04-16T06:37:07.977Z,88.50
2018-04-16T06:39:40.402Z,87.40
2018-04-16T06:42:12.987Z,86.80
2018-04-16T06:44:46.155Z,85.90
2018-04-16T06:47:18.678Z,82.70
2018-04-16T06:49:51.247Z,81.80
2018-04-16T06:52:23.844Z,81.20
2018-04-16T06:54:56.162Z,80.90
2018-04-16T06:57:28.787Z,81.20
2018-04-16T07:00:01.225Z,81.30
2018-04-16T07:02:33.670Z,78.70
2018-04-16T07:05:06.144Z,77.70
2018-04-16T07:07:38.815Z,76.80
2018-04-16T07:10:11.393Z,76.80
2018-04-16T07:12:43.929Z,77.60
2018-04-16T07:15:16.489Z,75.60
2018-04-16T07:17:49.044Z,75.00
2018-04-16T07:20:21.560Z,74.20
2018-04-16T07:22:54.229Z,74.30
2018-04-16T07:25:26.725Z,75.00
2018-04-16T07:27:59.230Z,73.30
2018-04-16T07:30:31.855Z,72.80
2018-04-16T07:33:04.297Z,73.80
2018-04-16T07:35:36.933Z,72.50
2018-04-16T07:38:09.470Z,72.40
2018-04-16T07:40:42.145Z,70.70
2018-04-16T07:43:14.795Z,71.00
2018-04-16T07:45:47.486Z,70.80
2018-04-16T07:48:20.076Z,71.60
2018-04-16T07:50:52.724Z,71.20
2018-04-16T07:53:26.035Z,70.30
2018-04-16T07:55:58.437Z,70.30
2018-04-16T07:58:31.397Z,70.70
2018-04-16T08:01:04.090Z,70.30
2018-04-16T08:03:36.542Z,70.90
2018-04-16T08:06:08.965Z,70.40
2018-04-16T08:08:42.071Z,69.70
2018-04-16T08:11:14.524Z,69.60
2018-04-16T08:13:47.270Z,69.10
2018-04-16T08:16:20.571Z,69.00
2018-04-16T08:18:53.926Z,68.30
2018-04-16T08:21:27.727Z,68.30
2018-04-16T08:24:00.228Z,68.20
2018-04-16T08:26:33.714Z,69.10
2018-04-16T08:29:06.386Z,69.00
2018-04-16T08:31:38.921Z,67.50
2018-04-16T08:34:11.357Z,67.60
2018-04-16T08:36:43.928Z,67.70
2018-04-16T08:39:16.390Z,67.50
2018-04-16T08:41:48.826Z,66.60
2018-04-16T08:44:21.191Z,65.90
2018-04-16T08:46:53.722Z,65.30
2018-04-16T08:49:26.251Z,65.30
2018-04-16T08:51:59.444Z,66.70
2018-04-16T08:54:32.012Z,66.70
2018-04-16T08:57:04.475Z,65.30
2018-04-16T08:59:36.955Z,65.80
2018-04-16T09:02:09.462Z,66.00
2018-04-16T09:04:42.716Z,67.20
2018-04-16T09:07:15.913Z,64.50
2018-04-16T09:09:48.504Z,64.30
2018-04-16T09:12:20.913Z,64.80
2018-04-16T09:14:53.462Z,64.90
2018-04-16T09:17:26.699Z,63.70
2018-04-16T09:19:59.790Z,61.10
2018-04-16T09:22:33.676Z,60.50
2018-04-16T09:25:06.466Z,60.40
2018-04-16T09:27:39.021Z,60.80
2018-04-16T09:30:11.432Z,60.50
2018-04-16T09:32:43.983Z,60.80
2018-04-16T09:35:16.394Z,59.60
2018-04-16T09:37:51.392Z,59.70
2018-04-16T09:40:23.803Z,59.60
2018-04-16T09:42:56.888Z,58.30
2018-04-16T09:45:29.563Z,58.20
2018-04-16T09:48:01.993Z,58.90
2018-04-16T09:50:34.365Z,59.00
2018-04-16T09:53:06.729Z,58.80
2018-04-16T09:55:40.048Z,58.80
2018-04-16T09:58:13.320Z,57.80
2018-04-16T10:00:49.709Z,57.80
2018-04-16T10:03:22.262Z,58.10
2018-04-16T10:05:55.064Z,59.20
2018-04-16T10:08:27.582Z,57.80
2018-04-16T10:11:00.074Z,57.50
2018-04-16T10:13:32.536Z,57.60
2018-04-16T10:16:12.413Z,57.20
2018-04-16T10:18:44.997Z,59.00
2018-04-16T10:21:18.362Z,57.80
2018-04-16T10:23:50.740Z,57.90
2018-04-16T10:26:23.225Z,56.40
2018-04-16T10:28:55.675Z,55.30
2018-04-16T10:31:29.073Z,57.40
2018-04-16T10:34:01.818Z,57.30
2018-04-16T10:36:34.878Z,57.10
2018-04-16T10:39:07.958Z,56.60
2018-04-16T10:41:40.328Z,56.20
2018-04-16T10:44:14.177Z,55.50
2018-04-16T10:46:46.818Z,55.40
2018-04-16T10:49:19.449Z,55.50
2018-04-16T10:51:51.982Z,56.50
2018-04-16T10:54:24.761Z,55.50
2018-04-16T10:56:57.307Z,56.40
2018-04-16T10:59:29.964Z,56.90
2018-04-16T11:02:02.529Z,55.20
2018-04-16T11:04:34.989Z,54.90
2018-04-16T11:07:07.718Z,55.00
2018-04-16T11:09:40.167Z,55.10
2018-04-16T11:12:12.662Z,55.20
2018-04-16T11:14:46.031Z,56.50
2018-04-16T11:17:18.479Z,54.60
2018-04-16T11:19:50.833Z,55.30
2018-04-16T11:22:23.385Z,55.70
2018-04-16T11:24:56.522Z,54.40
2018-04-16T11:27:29.797Z,54.20
2018-04-16T11:30:03.026Z,52.70
2018-04-16T11:32:37.086Z,51.40
2018-04-16T11:35:09.539Z,51.30
2018-04-16T11:37:41.973Z,51.50
2018-04-16T11:40:14.403Z,51.90
2018-04-16T11:42:47.542Z,51.70
2018-04-16T11:45:20.740Z,48.50
2018-04-16T11:47:53.184Z,48.50
2018-04-16T11:50:25.795Z,48.50
2018-04-16T11:52:58.267Z,49.70
2018-04-16T11:55:31.449Z,51.00
2018-04-16T11:58:03.859Z,51.00
2018-04-16T12:00:37.437Z,50.80
2018-04-16T12:03:09.827Z,51.20
2018-04-16T12:05:42.503Z,51.10
2018-04-16T12:08:15.262Z,50.40
2018-04-16T12:10:47.763Z,51.60
2018-04-16T12:13:21.111Z,51.30
2018-04-16T12:15:53.528Z,51.20
2018-04-16T12:18:26.100Z,51.20
2018-04-16T12:20:58.678Z,51.40
2018-04-16T12:23:31.150Z,50.40
2018-04-16T12:26:03.799Z,51.40
2018-04-16T12:28:36.236Z,50.70
2018-04-16T12:31:08.698Z,49.60
2018-04-16T12:33:41.225Z,50.50
2018-04-16T12:36:13.716Z,50.00
2018-04-16T12:38:46.333Z,48.10
2018-04-16T12:41:19.421Z,47.80
2018-04-16T12:43:51.958Z,47.20
2018-04-16T12:46:24.324Z,47.80
2018-04-16T12:48:56.859Z,48.40
2018-04-16T12:51:29.357Z,47.90
2018-04-16T12:54:01.940Z,47.60
2018-04-16T12:56:34.540Z,48.40
2018-04-16T12:59:07.005Z,46.80
2018-04-16T13:01:39.539Z,47.80
2018-04-16T13:04:12.254Z,46.30
2018-04-16T13:06:45.026Z,45.60
2018-04-16T13:09:17.499Z,45.80
2018-04-16T13:11:49.990Z,45.70
2018-04-16T13:14:22.671Z,47.10
2018-04-16T13:16:55.778Z,43.70
2018-04-16T13:19:29.124Z,43.30
2018-04-16T13:22:01.735Z,43.20
2018-04-16T13:24:34.858Z,42.00
2018-04-16T13:27:07.520Z,41.10
2018-04-16T13:29:40.140Z,39.70
2018-04-16T13:32:12.615Z,38.40
2018-04-16T13:34:45.348Z,37.00
2018-04-16T13:37:17.924Z,36.20
2018-04-16T13:39:50.485Z,35.70
2018-04-16T13:42:23.120Z,32.90
2018-04-16T13:44:56.824Z,33.00
2018-04-16T13:47:29.359Z,32.50
2018-04-16T13:50:01.699Z,33.10
2018-04-16T13:52:34.145Z,31.00
2018-04-16T13:55:06.659Z,32.00
2018-04-16T13:57:39.912Z,30.70
2018-04-16T14:00:12.241Z,30.70
2018-04-16T14:02:44.988Z,31.10
2018-04-16T14:05:17.489Z,31.70
2018-04-16T14:07:51.171Z,30.80
2018-04-16T14:10:23.672Z,31.50
2018-04-16T14:12:56.120Z,32.90
2018-04-16T14:15:28.915Z,30.90
2018-04-16T14:18:01.580Z,31.80
2018-04-16T14:20:34.324Z,30.90
2018-04-16T14:23:07.019Z,31.20
2018-04-16T14:25:39.550Z,30.90
2018-04-16T14:28:12.359Z,31.50
2018-04-16T14:30:44.861Z,32.30
2018-04-16T14:33:17.426Z,31.70
2018-04-16T14:35:50.056Z,32.30
2018-04-16T14:38:22.853Z,31.70
2018-04-16T14:40:55.392Z,31.60
2018-04-16T14:43:28.613Z,34.70
2018-04-16T14:46:01.933Z,35.60
2018-04-16T14:48:34.495Z,35.50
2018-04-16T14:51:07.235Z,35.70
2018-04-16T14:53:39.800Z,36.70
2018-04-16T14:56:12.402Z,36.00
2018-04-16T14:58:45.867Z,36.60
2018-04-16T15:01:18.316Z,37.50
2018-04-16T15:03:50.899Z,39.40
2018-04-16T15:06:23.394Z,40.80
2018-04-16T15:08:56.355Z,41.80
2018-04-16T15:11:28.889Z,41.70
2018-04-16T15:14:02.193Z,42.60
2018-04-16T15:16:35.630Z,42.60
2018-04-16T15:19:08.371Z,43.10
2018-04-16T15:21:41.524Z,44.70
2018-04-16T15:24:14.160Z,44.70
2018-04-16T15:26:46.610Z,45.20
2018-04-16T15:29:19.829Z,44.10
2018-04-16T15:31:52.266Z,44.10
2018-04-16T15:34:24.853Z,43.80
2018-04-16T15:36:57.560Z,43.20
2018-04-16T15:39:30.313Z,39.70
2018-04-16T15:42:02.682Z,38.20
2018-04-16T15:44:35.474Z,38.70
2018-04-16T15:47:08.059Z,39.80
2018-04-16T15:49:41.449Z,36.60
2018-04-16T15:52:14.030Z,36.60
2018-04-16T15:54:47.577Z,37.10
2018-04-16T15:57:20.087Z,37.60
2018-04-16T15:59:52.959Z,37.60
2018-04-16T16:02:25.463Z,37.40
2018-04-16T16:04:58.272Z,37.00
2018-04-16T16:07:30.750Z,37.00
2018-04-16T16:10:03.733Z,37.40
2018-04-16T16:12:36.393Z,38.20
2018-04-16T16:15:09.071Z,36.60
2018-04-16T16:17:41.702Z,38.20
2018-04-16T16:20:14.243Z,37.00
2018-04-16T16:22:46.856Z,37.80
2018-04-16T16:25:19.436Z,38.70
2018-04-16T16:27:52.027Z,39.70
2018-04-16T16:30:24.595Z,41.10
2018-04-16T16:32:57.000Z,41.70
2018-04-16T16:35:29.798Z,42.40
2018-04-16T16:38:02.454Z,43.50
2018-04-16T16:40:36.052Z,43.20
2018-04-16T16:43:08.532Z,44.10
2018-04-16T16:45:41.340Z,44.00
2018-04-16T16:48:13.803Z,43.80
2018-04-16T16:50:46.127Z,43.20
2018-04-16T16:53:18.770Z,43.60
2018-04-16T16:55:51.268Z,44.20
2018-04-16T16:58:23.744Z,44.70
2018-04-16T17:00:56.588Z,44.90
2018-04-16T17:03:29.170Z,46.00
2018-04-16T17:06:01.652Z,46.10
2018-04-16T17:08:34.795Z,45.70
2018-04-16T17:11:07.275Z,45.50
2018-04-16T17:13:40.009Z,46.00
2018-04-16T17:16:12.533Z,46.30
2018-04-16T17:18:45.018Z,46.90
2018-04-16T17:21:11.424Z,47.70
2018-04-16T17:23:37.828Z,48.40
2018-04-16T17:26:04.417Z,48.10
2018-04-16T17:28:30.753Z,48.50
2018-04-16T17:30:57.064Z,49.80
2018-04-16T17:33:23.405Z,49.10
2018-04-16T17:35:49.751Z,50.20
2018-04-16T17:38:16.159Z,50.10
2018-04-16T17:40:42.809Z,50.30
2018-04-16T17:43:09.155Z,50.00
2018-04-16T17:45:35.500Z,50.60
2018-04-16T17:48:02.097Z,51.40
2018-04-16T17:50:28.439Z,51.40
2018-04-16T17:52:54.714Z,52.20
2018-04-16T17:55:21.059Z,50.70
2018-04-16T17:57:47.393Z,49.60
2018-04-16T18:00:14.666Z,50.00
2018-04-16T18:02:41.746Z,50.90
2018-04-16T18:05:08.083Z,50.90
2018-04-16T18:07:34.414Z,50.20
2018-04-16T18:10:00.740Z,50.50
2018-04-16T18:12:27.333Z,50.50
2018-04-16T18:14:53.690Z,51.20
2018-04-16T18:17:20.128Z,51.90
2018-04-16T18:19:46.561Z,52.30
2018-04-16T18:22:13.106Z,52.40
2018-04-16T18:24:39.490Z,52.40
2018-04-16T18:27:06.574Z,53.10
2018-04-16T18:29:32.882Z,53.10
2018-04-16T18:31:59.308Z,53.40
2018-04-16T18:34:26.386Z,53.60
2018-04-16T18:36:53.436Z,53.60
2018-04-16T18:39:19.832Z,53.40
2018-04-16T18:41:46.940Z,54.50
2018-04-16T18:44:13.434Z,54.50
2018-04-16T18:46:40.013Z,55.20
2018-04-16T18:49:06.432Z,55.40
2018-04-16T18:51:32.767Z,54.50
2018-04-16T18:53:59.175Z,55.80
2018-04-16T18:56:25.756Z,55.50
2018-04-16T18:58:52.183Z,56.20
2018-04-16T19:01:19.467Z,56.50
2018-04-16T19:03:46.051Z,57.40
2018-04-16T19:06:12.388Z,56.90
2018-04-16T19:08:38.883Z,58.70
2018-04-16T19:11:05.256Z,59.00
2018-04-16T19:13:31.771Z,59.50
2018-04-16T19:15:58.315Z,61.20
2018-04-16T19:18:30.961Z,60.20
2018-04-16T19:21:09.646Z,60.40
2018-04-16T19:23:42.857Z,62.10
2018-04-16T19:26:15.454Z,62.10
2018-04-16T19:28:48.538Z,62.70
2018-04-16T19:31:22.065Z,63.70
2018-04-16T19:34:00.591Z,63.50
2018-04-16T19:36:33.177Z,63.70
2018-04-16T19:39:06.688Z,64.80
2018-04-16T19:41:46.005Z,65.40
2018-04-16T19:44:20.106Z,65.20
2018-04-16T19:46:52.631Z,65.20
2018-04-16T19:49:32.072Z,65.90
2018-04-16T19:52:04.674Z,65.70
2018-04-16T19:54:37.380Z,66.30
2018-04-16T19:57:16.031Z,66.40
2018-04-16T19:59:48.495Z,66.40
2018-04-16T20:02:27.174Z,66.70
2018-04-16T20:04:59.724Z,67.10
2018-04-16T20:07:32.414Z,66.60
2018-04-16T20:10:05.067Z,66.80
2018-04-16T20:12:37.641Z,68.00
2018-04-16T20:15:10.439Z,68.00
2018-04-16T20:17:43.190Z,68.50
2018-04-16T20:20:15.674Z,68.10
2018-04-16T20:22:48.539Z,68.30
2018-04-16T20:25:21.158Z,69.40
2018-04-16T20:27:53.948Z,68.70
2018-04-16T20:30:26.370Z,68.60
2018-04-16T20:32:59.099Z,69.60
2018-04-16T20:35:31.730Z,69.70
2018-04-16T20:38:04.437Z,70.20
2018-04-16T20:40:37.009Z,70.10
2018-04-16T20:43:10.569Z,70.50
2018-04-16T20:45:42.973Z,70.50
2018-04-16T20:48:15.382Z,70.50
2018-04-16T20:50:48.110Z,70.00
2018-04-16T20:53:20.835Z,70.60
2018-04-16T20:55:53.361Z,71.50
2018-04-16T20:58:25.946Z,72.60
2018-04-16T21:00:58.543Z,72.50
2018-04-16T21:03:31.107Z,72.50
2018-04-16T21:06:03.654Z,71.10
2018-04-16T21:08:36.204Z,71.30
2018-04-16T21:11:09.029Z,72.00
2018-04-16T21:13:41.607Z,71.70
2018-04-16T21:16:14.160Z,71.60
2018-04-16T21:18:47.411Z,71.40
2018-04-16T21:21:20.663Z,72.10
2018-04-16T21:23:53.220Z,72.00
2018-04-16T21:26:25.836Z,72.60
2018-04-16T21:28:59.169Z,73.10
2018-04-16T21:31:33.020Z,72.70
2018-04-16T21:34:05.608Z,72.70
2018-04-16T21:36:38.219Z,72.70
2018-04-16T21:39:10.756Z,73.40
2018-04-16T21:41:43.070Z,73.10
2018-04-16T21:44:15.660Z,73.60
2018-04-16T21:46:48.996Z,73.80
2018-04-16T21:49:21.603Z,73.90
2018-04-16T21:51:54.367Z,74.30
2018-04-16T21:54:26.887Z,74.50
2018-04-16T21:56:59.388Z,74.50
2018-04-16T21:59:31.769Z,74.60
2018-04-16T22:02:04.239Z,74.70
2018-04-16T22:04:36.975Z,74.90
2018-04-16T22:07:09.541Z,74.60
2018-04-16T22:09:42.643Z,74.60
2018-04-16T22:12:16.104Z,75.00
2018-04-16T22:14:48.665Z,75.00
2018-04-16T22:17:22.743Z,75.00
2018-04-16T22:19:55.240Z,74.90
2018-04-16T22:22:27.803Z,75.10
2018-04-16T22:25:00.334Z,75.30
2018-04-16T22:27:32.771Z,75.50
2018-04-16T22:30:05.952Z,75.40
2018-04-16T22:32:39.265Z,76.30
2018-04-16T22:35:12.493Z,76.40
2018-04-16T22:37:44.908Z,76.80
2018-04-16T22:40:18.130Z,77.50
2018-04-16T22:42:50.611Z,77.20
2018-04-16T22:45:23.988Z,77.50
2018-04-16T22:47:56.584Z,77.10
2018-04-16T22:50:29.134Z,77.30
2018-04-16T22:53:02.545Z,78.00
2018-04-16T22:55:35.144Z,78.00
2018-04-16T22:58:07.786Z,78.10
2018-04-16T23:00:40.242Z,78.50
2018-04-16T23:03:12.681Z,77.80
2018-04-16T23:05:45.319Z,77.80
2018-04-16T23:08:17.712Z,78.00
2018-04-16T23:10:50.224Z,78.30
2018-04-16T23:13:22.699Z,78.30
2018-04-16T23:15:55.105Z,78.30
2018-04-16T23:18:27.608Z,79.00
2018-04-16T23:21:00.089Z,79.00
2018-04-16T23:23:34.117Z,78.80
2018-04-16T23:26:06.612Z,78.70
2018-04-16T23:28:39.223Z,78.80
2018-04-16T23:31:11.623Z,80.20
2018-04-16T23:33:44.276Z,80.80
2018-04-16T23:36:16.794Z,81.00
2018-04-16T23:38:49.565Z,81.30
2018-04-16T23:41:22.243Z,81.40
2018-04-16T23:43:54.654Z,81.50
2018-04-16T23:46:27.951Z,81.70
2018-04-16T23:49:00.425Z,81.70
2018-04-16T23:51:33.054Z,81.20
2018-04-16T23:54:06.447Z,81.60
2018-04-16T23:56:39.095Z,81.60
2018-04-16T23:59:12.281Z,81.80
